Wetterdaten: Woche 21.03.16 - 27.03.16 (KW12)
Datum Zeit Temp. A. Feuchte A. Luftdruck Regen Wind Richtung Taupunkt Windchill Windben
21.03.2016 00:00 4,1 C 79 % 1015,4 hPa 0,0 l/m 0,0 km/h N 0,7 C 4,1 C 1,6 km/h
21.03.2016 01:00 4,8 C 76 % 1015,3 hPa 0,0 l/m 0,1 km/h N 0,9 C 4,8 C 2,4 km/h
21.03.2016 02:00 5,1 C 74 % 1015,0 hPa 0,0 l/m 0,0 km/h N 0,9 C 5,1 C 0,4 km/h
21.03.2016 03:00 4,8 C 75 % 1014,9 hPa 0,0 l/m 0,2 km/h N 0,7 C 4,8 C 2,4 km/h
21.03.2016 04:00 4,1 C 74 % 1014,9 hPa 0,0 l/m 0,1 km/h N -0,1 C 4,1 C 2,8 km/h
21.03.2016 05:00 4,4 C 77 % 1015,0 hPa 0,0 l/m 2,2 km/h N 0,7 C 4,4 C 9,3 km/h
21.03.2016 06:00 5,3 C 75 % 1015,5 hPa 0,0 l/m 6,6 km/h N 1,1 C 4,9 C 18,5 km/h
21.03.2016 07:00 5,7 C 71 % 1015,8 hPa 0,0 l/m 8,0 km/h N 0,9 C 4,4 C 19,3 km/h
21.03.2016 08:00 6,9 C 65 % 1016,3 hPa 0,0 l/m 8,7 km/h N 0,8 C 5,1 C 19,3 km/h
21.03.2016 09:00 7,5 C 62 % 1016,8 hPa 0,0 l/m 9,9 km/h N 0,6 C 4,9 C 24,1 km/h
21.03.2016 10:00 8,1 C 60 % 1016,8 hPa 0,0 l/m 9,2 km/h N 0,7 C 6,1 C 22,5 km/h
21.03.2016 11:00 9,1 C 57 % 1016,4 hPa 0,0 l/m 10,5 km/h N 1,0 C 6,4 C 23,7 km/h
21.03.2016 12:00 10,3 C 53 % 1015,7 hPa 0,0 l/m 7,9 km/h N 1,0 C 9,2 C 22,5 km/h
21.03.2016 13:00 10,4 C 51 % 1014,8 hPa 0,0 l/m 8,1 km/h N 0,5 C 9,3 C 20,5 km/h
21.03.2016 14:00 10,7 C 51 % 1014,1 hPa 0,0 l/m 7,5 km/h N 0,9 C 9,9 C 19,7 km/h
21.03.2016 15:00 11,0 C 50 % 1013,6 hPa 0,0 l/m 6,3 km/h N 0,8 C 10,6 C 17,3 km/h
21.03.2016 16:00 11,4 C 48 % 1013,3 hPa 0,0 l/m 7,1 km/h N 0,8 C 10,8 C 17,7 km/h
21.03.2016 17:00 10,5 C 51 % 1013,3 hPa 0,0 l/m 6,1 km/h N 0,7 C 10,2 C 14,9 km/h
21.03.2016 18:00 9,2 C 53 % 1013,5 hPa 0,0 l/m 2,5 km/h N 0,2 C 9,2 C 7,6 km/h
21.03.2016 19:00 7,8 C 57 % 1013,6 hPa 0,0 l/m 0,2 km/h N -0,1 C 7,8 C 4,0 km/h
21.03.2016 20:00 7,5 C 60 % 1013,6 hPa 0,0 l/m 1,6 km/h N 0,2 C 7,5 C 6,8 km/h
21.03.2016 21:00 7,5 C 60 % 1013,5 hPa 0,0 l/m 3,3 km/h N 0,2 C 7,5 C 13,3 km/h
21.03.2016 22:00 8,0 C 57 % 1013,3 hPa 0,0 l/m 5,7 km/h N -0,0 C 8,0 C 16,5 km/h
21.03.2016 23:00 7,9 C 58 % 1012,9 hPa 0,0 l/m 4,1 km/h N 0,1 C 7,9 C 16,5 km/h
22.03.2016 00:00 8,4 C 57 % 1012,4 hPa 0,0 l/m 6,2 km/h N 0,4 C 8,2 C 18,9 km/h
22.03.2016 01:00 8,3 C 60 % 1011,9 hPa 0,0 l/m 3,3 km/h N 1,0 C 8,3 C 12,9 km/h
22.03.2016 02:00 8,1 C 61 % 1011,3 hPa 0,0 l/m 5,1 km/h N 1,0 C 8,1 C 16,5 km/h
22.03.2016 03:00 7,6 C 63 % 1010,8 hPa 0,0 l/m 3,1 km/h N 1,1 C 7,6 C 13,3 km/h
22.03.2016 04:00 7,4 C 65 % 1010,8 hPa 0,0 l/m 5,8 km/h N 1,3 C 7,0 C 18,5 km/h
22.03.2016 05:00 6,9 C 68 % 1010,9 hPa 0,0 l/m 8,2 km/h N 1,4 C 5,5 C 21,3 km/h
22.03.2016 06:00 6,9 C 69 % 1011,1 hPa 0,0 l/m 9,7 km/h N 1,6 C 4,4 C 23,7 km/h
22.03.2016 07:00 7,4 C 66 % 1011,1 hPa 0,0 l/m 10,5 km/h N 1,4 C 4,4 C 22,9 km/h
22.03.2016 08:00 7,6 C 65 % 1011,3 hPa 0,0 l/m 7,2 km/h N 1,5 C 7,0 C 19,7 km/h
22.03.2016 09:00 7,7 C 66 % 1011,4 hPa 0,0 l/m 7,8 km/h N 1,6 C 6,5 C 18,9 km/h
22.03.2016 10:00 7,9 C 68 % 1011,2 hPa 0,0 l/m 6,7 km/h N 2,4 C 7,3 C 15,7 km/h
22.03.2016 11:00 7,5 C 73 % 1010,8 hPa 0,8 l/m 6,2 km/h N 2,9 C 7,1 C 16,9 km/h
22.03.2016 12:00 8,5 C 70 % 1010,4 hPa 0,0 l/m 5,1 km/h N 3,3 C 8,4 C 17,7 km/h
22.03.2016 13:00 7,4 C 75 % 1010,5 hPa 1,0 l/m 4,8 km/h N 3,3 C 7,1 C 12,9 km/h
22.03.2016 14:00 7,1 C 77 % 1010,3 hPa 0,0 l/m 5,1 km/h N 3,4 C 6,8 C 15,3 km/h
22.03.2016 15:00 7,4 C 76 % 1009,8 hPa 0,0 l/m 3,8 km/h N 3,4 C 7,4 C 12,9 km/h
22.03.2016 16:00 8,2 C 67 % 1009,6 hPa 0,0 l/m 9,6 km/h N 2,5 C 6,1 C 22,5 km/h
22.03.2016 17:00 7,4 C 70 % 1009,8 hPa 0,0 l/m 1,6 km/h N 2,2 C 7,4 C 8,8 km/h
22.03.2016 18:00 6,7 C 73 % 1009,9 hPa 0,0 l/m 0,1 km/h N 2,1 C 6,7 C 1,2 km/h
22.03.2016 19:00 5,8 C 77 % 1010,3 hPa 0,0 l/m 0,1 km/h N 2,0 C 5,8 C 1,6 km/h
22.03.2016 20:00 5,9 C 77 % 1010,4 hPa 0,0 l/m 0,4 km/h N 2,2 C 5,9 C 4,4 km/h
22.03.2016 21:00 6,2 C 74 % 1010,1 hPa 0,0 l/m 1,5 km/h N 1,9 C 6,2 C 7,2 km/h
22.03.2016 22:00 6,0 C 72 % 1009,8 hPa 0,3 l/m 0,2 km/h N 1,2 C 6,0 C 2,4 km/h
22.03.2016 23:00 4,4 C 76 % 1009,5 hPa 0,0 l/m 0,0 km/h N 0,5 C 4,4 C 0,0 km/h
23.03.2016 00:00 3,7 C 79 % 1009,3 hPa 0,0 l/m 0,0 km/h N 0,4 C 3,7 C 0,4 km/h
23.03.2016 01:00 3,4 C 82 % 1008,9 hPa 0,0 l/m 0,0 km/h N 0,6 C 3,4 C 0,0 km/h
23.03.2016 02:00 3,3 C 82 % 1008,1 hPa 0,0 l/m 0,0 km/h N 0,5 C 3,3 C 0,0 km/h
23.03.2016 03:00 3,8 C 81 % 1007,7 hPa 0,0 l/m 0,3 km/h N 0,9 C 3,8 C 3,6 km/h
23.03.2016 04:00 4,1 C 79 % 1007,6 hPa 0,0 l/m 0,0 km/h N 0,8 C 4,1 C 2,4 km/h
23.03.2016 05:00 4,2 C 78 % 1007,4 hPa 0,0 l/m 0,0 km/h N 0,7 C 4,2 C 1,2 km/h
23.03.2016 06:00 4,0 C 80 % 1007,3 hPa 0,0 l/m 0,1 km/h N 0,8 C 4,0 C 1,6 km/h
23.03.2016 07:00 4,9 C 78 % 1007,2 hPa 0,0 l/m 2,4 km/h N 1,3 C 4,9 C 8,9 km/h
23.03.2016 08:00 6,2 C 73 % 1007,2 hPa 0,0 l/m 2,5 km/h N 1,7 C 6,2 C 8,9 km/h
23.03.2016 09:00 7,0 C 70 % 1007,0 hPa 0,0 l/m 2,5 km/h N 2,0 C 7,0 C 10,1 km/h
23.03.2016 10:00 7,3 C 68 % 1006,9 hPa 0,0 l/m 3,4 km/h N 1,8 C 7,3 C 13,7 km/h
23.03.2016 11:00 8,0 C 65 % 1006,3 hPa 0,0 l/m 4,6 km/h N 1,8 C 8,0 C 13,3 km/h
23.03.2016 12:00 8,9 C 59 % 1005,6 hPa 0,0 l/m 6,5 km/h N 1,3 C 8,5 C 17,7 km/h
23.03.2016 13:00 9,4 C 54 % 1004,8 hPa 0,0 l/m 7,0 km/h N 0,6 C 8,8 C 18,9 km/h
23.03.2016 14:00 9,6 C 52 % 1004,4 hPa 0,0 l/m 6,9 km/h N 0,1 C 9,2 C 18,1 km/h
23.03.2016 15:00 10,0 C 48 % 1004,2 hPa 0,0 l/m 6,2 km/h N -0,4 C 9,7 C 16,9 km/h
23.03.2016 16:00 9,0 C 56 % 1004,2 hPa 0,0 l/m 7,9 km/h N 0,7 C 7,9 C 18,5 km/h
23.03.2016 17:00 8,6 C 57 % 1004,7 hPa 0,0 l/m 6,0 km/h N 0,6 C 8,3 C 17,7 km/h
23.03.2016 18:00 7,5 C 64 % 1005,2 hPa 0,0 l/m 8,0 km/h N 1,2 C 6,0 C 19,7 km/h
23.03.2016 19:00 6,8 C 69 % 1005,3 hPa 0,0 l/m 3,5 km/h N 1,5 C 6,8 C 11,3 km/h
23.03.2016 20:00 7,1 C 65 % 1005,5 hPa 0,0 l/m 6,5 km/h N 0,9 C 6,6 C 16,1 km/h
23.03.2016 21:00 6,5 C 66 % 1005,7 hPa 0,0 l/m 3,9 km/h N 0,6 C 6,5 C 9,7 km/h
23.03.2016 22:00 6,2 C 68 % 1005,7 hPa 0,0 l/m 5,1 km/h N 0,8 C 6,2 C 12,9 km/h
23.03.2016 23:00 6,2 C 70 % 1005,8 hPa 0,0 l/m 6,6 km/h N 1,1 C 5,8 C 16,5 km/h
24.03.2016 00:00 5,9 C 73 % 1005,6 hPa 0,0 l/m 6,5 km/h N 1,5 C 5,3 C 18,1 km/h
24.03.2016 01:00 5,7 C 76 % 1005,7 hPa 0,0 l/m 5,4 km/h N 1,8 C 5,7 C 12,9 km/h
24.03.2016 02:00 5,7 C 75 % 1005,8 hPa 0,0 l/m 7,2 km/h N 1,6 C 5,0 C 20,1 km/h
24.03.2016 03:00 4,7 C 80 % 1006,1 hPa 0,3 l/m 6,2 km/h N 1,4 C 4,4 C 19,3 km/h
24.03.2016 04:00 4,2 C 80 % 1006,6 hPa 0,0 l/m 5,9 km/h N 1,1 C 3,7 C 19,7 km/h
24.03.2016 05:00 4,4 C 81 % 1006,9 hPa 0,0 l/m 6,7 km/h N 1,3 C 3,9 C 16,9 km/h
24.03.2016 06:00 4,6 C 80 % 1007,7 hPa 0,3 l/m 8,9 km/h N 1,4 C 2,5 C 22,1 km/h
24.03.2016 07:00 5,2 C 75 % 1008,4 hPa 0,0 l/m 10,7 km/h N 1,0 C 1,7 C 26,6 km/h
24.03.2016 08:00 4,9 C 77 % 1009,4 hPa 0,0 l/m 9,3 km/h N 1,2 C 2,6 C 22,9 km/h
24.03.2016 09:00 5,7 C 77 % 1009,9 hPa 0,0 l/m 11,1 km/h N 2,0 C 2,1 C 24,9 km/h
24.03.2016 10:00 7,0 C 67 % 1010,2 hPa 0,3 l/m 13,0 km/h N 1,2 C 2,6 C 29,8 km/h
24.03.2016 11:00 8,8 C 58 % 1010,1 hPa 0,0 l/m 14,5 km/h N 1,0 C 3,9 C 30,2 km/h
24.03.2016 12:00 9,2 C 53 % 1010,2 hPa 0,0 l/m 12,4 km/h N 0,1 C 5,5 C 27,0 km/h
24.03.2016 13:00 8,6 C 57 % 1010,5 hPa 0,0 l/m 14,6 km/h N 0,6 C 3,6 C 29,8 km/h
24.03.2016 14:00 9,2 C 54 % 1010,9 hPa 0,0 l/m 14,1 km/h N 0,4 C 4,6 C 29,8 km/h
24.03.2016 15:00 9,1 C 56 % 1011,3 hPa 0,0 l/m 13,2 km/h N 0,7 C 4,9 C 29,8 km/h
24.03.2016 16:00 8,9 C 53 % 1011,9 hPa 0,0 l/m 10,3 km/h N -0,2 C 6,2 C 22,5 km/h
24.03.2016 17:00 8,0 C 58 % 1012,7 hPa 0,0 l/m 7,9 km/h N 0,3 C 7,0 C 20,1 km/h
24.03.2016 18:00 7,0 C 62 % 1013,4 hPa 0,0 l/m 5,8 km/h N 0,2 C 6,9 C 14,1 km/h
24.03.2016 19:00 6,5 C 63 % 1014,3 hPa 0,0 l/m 4,9 km/h N -0,2 C 6,5 C 14,1 km/h
24.03.2016 20:00 6,3 C 64 % 1015,1 hPa 0,0 l/m 2,3 km/h N 0,0 C 6,3 C 7,6 km/h
24.03.2016 21:00 6,3 C 65 % 1015,2 hPa 0,0 l/m 4,3 km/h N 0,1 C 6,3 C 13,7 km/h
24.03.2016 22:00 5,7 C 65 % 1015,4 hPa 0,0 l/m 2,4 km/h N -0,4 C 5,7 C 8,4 km/h
24.03.2016 23:00 5,2 C 67 % 1015,4 hPa 0,0 l/m 0,2 km/h N -0,4 C 5,2 C 2,8 km/h
25.03.2016 00:00 5,1 C 68 % 1015,3 hPa 0,0 l/m 0,1 km/h N -0,2 C 5,1 C 3,6 km/h
25.03.2016 01:00 4,8 C 69 % 1015,3 hPa 0,0 l/m 0,0 km/h N -0,5 C 4,8 C 2,0 km/h
25.03.2016 02:00 4,0 C 72 % 1015,3 hPa 0,0 l/m 0,0 km/h N -0,6 C 4,0 C 0,4 km/h
25.03.2016 03:00 4,3 C 76 % 1015,1 hPa 0,0 l/m 0,5 km/h N 0,3 C 4,3 C 4,8 km/h
25.03.2016 04:00 5,3 C 71 % 1015,1 hPa 0,0 l/m 0,0 km/h N 0,4 C 5,3 C 0,4 km/h
25.03.2016 05:00 4,7 C 73 % 1015,2 hPa 0,0 l/m 0,0 km/h N 0,3 C 4,7 C 0,0 km/h
25.03.2016 06:00 3,8 C 77 % 1015,4 hPa 0,0 l/m 0,0 km/h N 0,0 C 3,8 C 0,0 km/h
25.03.2016 07:00 4,0 C 80 % 1015,4 hPa 0,0 l/m 0,0 km/h N 0,9 C 4,0 C 0,4 km/h
25.03.2016 08:00 5,9 C 80 % 1015,4 hPa 0,0 l/m 0,0 km/h N 2,8 C 5,9 C 1,6 km/h
25.03.2016 09:00 8,6 C 70 % 1015,2 hPa 0,0 l/m 1,2 km/h N 3,3 C 8,6 C 5,6 km/h
25.03.2016 10:00 9,9 C 52 % 1014,9 hPa 0,0 l/m 6,3 km/h N 0,4 C 9,6 C 16,9 km/h
25.03.2016 11:00 10,1 C 51 % 1014,7 hPa 0,0 l/m 4,4 km/h N 0,5 C 10,1 C 12,1 km/h
25.03.2016 12:00 11,0 C 49 % 1014,1 hPa 0,0 l/m 5,1 km/h N 0,6 C 10,8 C 16,1 km/h
25.03.2016 13:00 11,4 C 49 % 1013,7 hPa 0,0 l/m 4,3 km/h N 1,0 C 11,4 C 14,1 km/h
25.03.2016 14:00 10,8 C 52 % 1013,3 hPa 0,0 l/m 0,9 km/h N 1,2 C 10,8 C 6,4 km/h
25.03.2016 15:00 11,1 C 52 % 1012,9 hPa 0,0 l/m 1,0 km/h N 1,4 C 11,1 C 7,6 km/h
25.03.2016 16:00 10,6 C 53 % 1012,8 hPa 0,0 l/m 4,7 km/h N 1,4 C 10,6 C 14,9 km/h
25.03.2016 17:00 10,2 C 56 % 1012,9 hPa 0,0 l/m 4,2 km/h N 1,9 C 10,2 C 16,5 km/h
25.03.2016 18:00 9,6 C 61 % 1013,4 hPa 0,0 l/m 5,3 km/h N 2,4 C 9,4 C 18,9 km/h
25.03.2016 19:00 8,7 C 66 % 1013,8 hPa 0,0 l/m 1,1 km/h N 2,6 C 8,7 C 8,1 km/h
25.03.2016 20:00 8,0 C 69 % 1014,2 hPa 0,0 l/m 1,4 km/h N 2,8 C 8,0 C 8,5 km/h
25.03.2016 21:00 7,7 C 72 % 1014,4 hPa 0,0 l/m 2,3 km/h N 2,9 C 7,7 C 9,6 km/h
25.03.2016 22:00 7,2 C 75 % 1014,6 hPa 0,0 l/m 0,2 km/h N 3,0 C 7,2 C 3,2 km/h
25.03.2016 23:00 7,0 C 78 % 1014,7 hPa 0,0 l/m 0,4 km/h N 3,5 C 7,0 C 4,4 km/h
26.03.2016 00:00 6,6 C 80 % 1014,8 hPa 0,3 l/m 0,5 km/h N 3,4 C 6,6 C 4,0 km/h
26.03.2016 01:00 6,2 C 81 % 1015,0 hPa 0,0 l/m 0,3 km/h N 3,3 C 6,2 C 4,4 km/h
26.03.2016 02:00 6,1 C 82 % 1015,1 hPa 0,0 l/m 0,8 km/h N 3,3 C 6,1 C 6,0 km/h
26.03.2016 03:00 6,2 C 82 % 1015,3 hPa 0,0 l/m 5,1 km/h N 3,2 C 5,8 C 16,5 km/h
26.03.2016 04:00 5,9 C 82 % 1015,8 hPa 0,0 l/m 3,4 km/h N 3,0 C 5,9 C 9,3 km/h
26.03.2016 05:00 5,7 C 83 % 1016,5 hPa 0,0 l/m 4,3 km/h N 3,0 C 5,7 C 12,1 km/h
26.03.2016 06:00 5,8 C 83 % 1017,3 hPa 0,0 l/m 2,9 km/h N 3,1 C 5,8 C 12,1 km/h
26.03.2016 07:00 5,9 C 83 % 1018,0 hPa 0,0 l/m 5,8 km/h N 3,2 C 5,7 C 14,5 km/h
26.03.2016 08:00 6,3 C 82 % 1018,5 hPa 0,0 l/m 7,4 km/h N 3,4 C 5,5 C 18,1 km/h
26.03.2016 09:00 6,7 C 80 % 1019,3 hPa 0,0 l/m 8,5 km/h N 3,6 C 5,1 C 18,9 km/h
26.03.2016 10:00 7,5 C 79 % 1019,4 hPa 0,0 l/m 9,4 km/h N 4,0 C 5,3 C 22,1 km/h
26.03.2016 11:00 8,1 C 76 % 1019,4 hPa 0,3 l/m 8,6 km/h N 4,1 C 6,4 C 22,1 km/h
26.03.2016 12:00 8,3 C 74 % 1019,4 hPa 0,0 l/m 9,6 km/h N 4,0 C 6,0 C 21,7 km/h
26.03.2016 13:00 8,4 C 74 % 1019,3 hPa 0,0 l/m 8,8 km/h N 4,0 C 6,6 C 22,1 km/h
26.03.2016 14:00 8,4 C 73 % 1019,2 hPa 0,0 l/m 9,5 km/h N 3,8 C 6,2 C 21,7 km/h
26.03.2016 15:00 8,7 C 74 % 1018,9 hPa 0,0 l/m 10,5 km/h N 4,3 C 5,8 C 28,6 km/h
26.03.2016 16:00 8,7 C 74 % 1018,6 hPa 0,0 l/m 10,3 km/h N 4,4 C 6,0 C 24,1 km/h
26.03.2016 17:00 8,5 C 74 % 1018,6 hPa 0,0 l/m 9,4 km/h N 4,1 C 6,4 C 21,7 km/h
26.03.2016 18:00 8,3 C 74 % 1018,8 hPa 0,0 l/m 6,6 km/h N 3,9 C 8,1 C 16,9 km/h
26.03.2016 19:00 8,3 C 73 % 1018,8 hPa 0,0 l/m 8,9 km/h N 3,7 C 6,4 C 22,9 km/h
26.03.2016 20:00 8,0 C 73 % 1018,9 hPa 0,0 l/m 7,4 km/h N 3,5 C 7,2 C 18,9 km/h
26.03.2016 21:00 7,7 C 74 % 1018,8 hPa 0,0 l/m 6,7 km/h N 3,3 C 7,2 C 17,3 km/h
26.03.2016 22:00 7,3 C 74 % 1018,7 hPa 0,0 l/m 1,3 km/h N 3,0 C 7,3 C 6,0 km/h
26.03.2016 23:00 6,4 C 76 % 1018,5 hPa 0,0 l/m 0,5 km/h N 2,6 C 6,4 C 7,2 km/h
27.03.2016 00:00 5,8 C 77 % 1018,3 hPa 0,0 l/m 0,1 km/h N 2,1 C 5,8 C 1,6 km/h
27.03.2016 01:00 4,3 C 78 % 1018,1 hPa 0,0 l/m 0,0 km/h N 0,7 C 4,3 C 0,8 km/h
27.03.2016 03:00 3,7 C 81 % 1017,8 hPa 0,0 l/m 0,1 km/h N 0,7 C 3,7 C 2,4 km/h
27.03.2016 04:00 2,0 C 81 % 1017,5 hPa 0,0 l/m 0,0 km/h N -0,8 C 2,0 C 0,5 km/h
27.03.2016 05:00 1,2 C 82 % 1017,3 hPa 0,0 l/m 0,0 km/h N -1,5 C 1,2 C 0,0 km/h
27.03.2016 06:00 0,4 C 83 % 1017,1 hPa 0,0 l/m 0,0 km/h N -2,2 C 0,4 C 0,4 km/h
27.03.2016 07:00 0,1 C 83 % 1017,1 hPa 0,0 l/m 0,0 km/h N -2,4 C 0,1 C 0,0 km/h
27.03.2016 08:00 2,1 C 83 % 1016,8 hPa 0,0 l/m 0,0 km/h N -0,6 C 2,1 C 0,8 km/h
27.03.2016 09:00 5,8 C 82 % 1016,3 hPa 0,0 l/m 0,1 km/h N 3,0 C 5,8 C 2,8 km/h
27.03.2016 10:00 10,4 C 71 % 1015,7 hPa 0,0 l/m 0,8 km/h N 5,4 C 10,4 C 7,6 km/h
27.03.2016 11:00 13,0 C 60 % 1014,9 hPa 0,0 l/m 2,8 km/h N 5,3 C 13,0 C 13,3 km/h
27.03.2016 12:00 14,1 C 57 % 1014,3 hPa 0,0 l/m 2,8 km/h N 5,6 C 14,1 C 14,9 km/h
27.03.2016 13:00 14,9 C 54 % 1013,5 hPa 0,0 l/m 3,9 km/h N 5,7 C 14,9 C 16,9 km/h
27.03.2016 14:00 15,6 C 51 % 1012,9 hPa 0,0 l/m 3,7 km/h N 5,6 C 15,6 C 15,3 km/h
27.03.2016 15:00 15,9 C 49 % 1012,3 hPa 0,0 l/m 3,4 km/h N 5,2 C 15,9 C 15,3 km/h
27.03.2016 16:00 15,4 C 48 % 1012,1 hPa 0,0 l/m 3,5 km/h N 4,5 C 15,4 C 15,3 km/h
27.03.2016 17:00 14,8 C 49 % 1011,8 hPa 0,0 l/m 2,7 km/h N 4,2 C 14,8 C 15,3 km/h
27.03.2016 18:00 13,5 C 51 % 1012,0 hPa 0,0 l/m 2,1 km/h N 3,5 C 13,5 C 10,1 km/h
27.03.2016 19:00 12,1 C 55 % 1012,3 hPa 0,0 l/m 0,2 km/h N 3,3 C 12,1 C 3,2 km/h
27.03.2016 20:00 10,3 C 61 % 1012,7 hPa 0,0 l/m 0,0 km/h N 3,0 C 10,3 C 1,2 km/h
27.03.2016 21:00 8,4 C 66 % 1013,0 hPa 0,0 l/m 0,0 km/h N 2,4 C 8,4 C 0,0 km/h
27.03.2016 22:00 6,7 C 72 % 1012,9 hPa 0,0 l/m 0,0 km/h N 2,0 C 6,7 C 0,0 km/h
27.03.2016 23:00 5,5 C 76 % 1012,9 hPa 0,0 l/m 0,0 km/h N 1,5 C 5,5 C 0,0 km/h
Min-Datum _ 27.03.16 23.03.16 23.03.16 - 21.03.16 - 27.03.16 27.03.16 21.03.16
_ Min-Zeit 07:15 15:45 15:45 - 00:15 - 07:15 07:15 00:15
Minimum _ 0,0 C 47 % 1004,0 hPa - 0,0 km/h - -2,5 C 0,0 C 0,0 km/h
Max-Datum _ 27.03.16 27.03.16 26.03.16 22.03.16 24.03.16 - 27.03.16 27.03.16 24.03.16
_ Max-Zeit 15:00 07:30 09:45 13:00 14:00 - 13:45 15:00 11:00
Maximum _ 16,2 C 84 % 1019,4 hPa 1,0 l/m 16,4 km/h
N
- 6,0 C 16,2 C 35,4 km/h
N
Durchschnitt _ 7,3 C 68 % 1012,7 hPa #3,4 l/m 4,4 km/h N 1,6 C 6,7 C 12,5 km/h